コルドバ空港の過去48時間の天気

コルドバ空港 (Cordoba Aerodrome)

現在時刻: 1/22 19:39 -03 (1/22 22:39 UTC) 以下の時間は現地時間です。

過去48時間のMETAR気象情報
時間 風向 風速(m/s) 視程 気温(℃) 湿度(%) 気圧(hPa) 天気現象
22 19:00 東南東 4 10km以上 29 52 1014
22 18:00 東南東 3 10km以上 30 49 1014
22 17:00 4 10km以上 29 48 1014
22 16:00 南東 4 10km以上 29 52 1015
22 15:00 東南東 3 10km以上 29 52 1015
22 14:00 南南東 3 10km以上 28 51 1016
22 13:00 3 10km以上 27 62 1016
22 12:00 4 10km以上 26 65 1017
22 11:00 南南東 5 10km以上 25 74 1017
22 10:00 5 10km以上 23 83 1016
22 09:00 南南西 4 10km以上 22 88 1016
22 08:00 南南西 4 10km以上 21 88 1016
22 07:00 南西 3 10km以上 20 88 1015
22 06:00 西南西 4 10km以上 18 94 1014
22 05:00 西南西 3 10km以上 18 88 1014
22 04:00 不定 1 10km以上 18 94 1014
22 03:00 西北西 1 10km以上 19 88 1014
22 02:00 西 3 10km以上 20 88 1015
22 01:00 西南西 3 10km以上 20 88 1015
22 00:00 西南西 3 10km以上 20 94 1015
21 23:00 南西 3 10km以上 21 88 1015
21 22:00 南南西 4 10km以上 23 78 1014
21 21:00 6 10km以上 23 78 1013
21 20:00 5 10km以上 24 78 1012
21 19:00 6 10km以上 24 78 1012
21 18:00 7 10km以上 24 78 1012
21 17:00 南南東 8 10km以上 25 74 1012
21 16:00 南東 9 10km以上 27 74 1012
21 15:00 南南東 7 10km以上 31 59 1011
21 14:00 4 10km以上 29 62 1012
21 13:00 南南西 5 10km以上 28 66 1012
21 12:00 5 10km以上 26 74 1012
21 11:00 南南西 6 10km以上 24 83 1013
21 10:00 南南西 6 10km以上 22 94 1013
21 09:00 南南西 7 6000m 21 100 1013 霧雨
21 08:08 南南西 6 2500m 21 100 1012 雨 もや
21 08:00 南南西 5 3000m 21 100 1012 霧雨 もや
21 07:37 南西 4 2000m 22 94 1012 弱い霧雨 もや
21 07:00 南南西 5 5000m 22 94 1012 もや
21 06:00 3 10km以上 21 100 1011
21 05:00 西南西 4 10km以上 22 94 1010
21 04:00 西南西 3 10km以上 23 94 1010
21 03:00 3 8000m 22 100 1011
21 02:00 不定 1 10km以上 22 100 1010
21 01:00 西 2 10km以上 22 100 1010
21 00:00 4 10km以上 23 94 1010
20 23:00 東北東 4 7000m 24 94 1011 弱い雷雨
20 22:25 南東 3 5000m 25 94 1012 雷雨
20 22:00 3 10km以上 25 94 1010
20 21:00 2 8000m 26 84 1009 弱い雨
20 20:00 東南東 3 8000m 27 84 1008
SACO 222200Z 11007KT CAVOK 29/18 Q1014 NOSIG
SACO 222100Z 12006KT 070V160 9999 FEW045 30/18 Q1014 NOSIG
SACO 222000Z 09008KT 9999 FEW045 29/17 Q1014 NOSIG
SACO 221900Z 13007KT 100V160 9999 SCT045 29/18 Q1015 NOSIG
SACO 221800Z 12006KT 070V220 9999 SCT045 29/18 Q1015 NOSIG
SACO 221700Z 15006KT 080V210 9999 FEW038 28/17 Q1016 NOSIG
SACO 221600Z 17006KT 110V220 9999 SCT036 27/19 Q1016 NOSIG
SACO 221500Z 17008KT 130V210 9999 BKN029 26/19 Q1017 NOSIG
SACO 221400Z 16009KT 120V200 9999 BKN019 25/20 Q1017 NOSIG
SACO 221300Z 17009KT 9999 SCT014 BKN021 23/20 Q1016 NOSIG
SACO 221200Z 21008KT 9999 SCT008 SCT015 22/20 Q1016 NOSIG
SACO 221100Z 21008KT 180V240 9999 SCT008 BKN020 21/19 Q1016 NOSIG
SACO 221000Z 23006KT 9999 FEW010 OVC025 20/18 Q1015 NOSIG
SACO 220900Z 25007KT 9999 FEW030 18/17 Q1014 NOSIG
SACO 220800Z 25006KT CAVOK 18/16 Q1014 NOSIG
SACO 220700Z VRB02KT CAVOK 18/17 Q1014 NOSIG
SACO 220600Z 29002KT CAVOK 19/17 Q1014 NOSIG
SACO 220500Z 28006KT CAVOK 20/18 Q1015 NOSIG
SACO 220400Z 25006KT CAVOK 20/18 Q1015 NOSIG
SACO 220300Z 25005KT CAVOK 20/19 Q1015 NOSIG
SACO 220200Z 22006KT CAVOK 21/19 Q1015 NOSIG
SACO 220100Z 21008KT 9999 FEW026 23/19 Q1014 NOSIG
SACO 220000Z 19011KT 9999 SCT021 23/19 Q1013 NOSIG
SACO 212300Z 18010KT 9999 OVC23 24/20 Q1012 NOSIG
SACO 212200Z 17012KT 9999 OVC026 24/20 Q1012 NOSIG
SACO 212100Z 17013KT 9999 OVC020 24/20 Q1012 NOSIG
SACO 212000Z 16015KT 9999 BKN020 25/20 Q1012 NOSIG
SACO 211900Z 14017KT 9999 BKN020 27/22 Q1012 NOSIG
SACO 211800Z 16013KT 9999 SCT034TCU 31/22 Q1011 NOSIG
SACO 211700Z 19008KT 140V240 9999 SCT030 29/21 Q1012 NOSIG
SACO 211600Z 20010KT 170V240 9999 SCT025 28/21 Q1012 NOSIG
SACO 211500Z 17009KT 140V210 9999 SCT020 26/21 Q1012 NOSIG
SACO 211400Z 20011KT 9999 BKN013 24/21 Q1013 NOSIG
SACO 211300Z 20012KT 9999 OVC008 22/21 Q1013 NOSIG
SACO 211200Z 20013KT 6000 DZ OVC007 21/21 Q1013 BECMG 20010KT 7000 BR BKN020
SACO 211108Z 20012KT 2500 RA BR OVC006 21/21 Q1012
SACO 211100Z 21009KT 3000 DZ BR OVC006 21/21 Q1012 REDZ BECMG 22010KT 1200 DZ OVC006
SACO 211037Z 22008KT 2000 -DZ BR OVC008 22/21 Q1012
SACO 211000Z 20010KT 5000 BR OVC007 22/21 Q1012 NOSIG
SACO 210900Z 17006KT 9999 FEW012 BKN25 21/21 Q1011 NOSIG
SACO 210800Z 24007KT 9999 FEW012 BKN048 22/21 Q1010 NOSIG
SACO 210700Z 24005KT 9999 FEW018 BKN050 23/22 Q1010 NOSIG
SACO 210600Z 17005KT 8000 FEW015 BKN040 22/22 Q1011 BECMG 6000 SHRA BKN012 FEW040CB
SACO 210500Z VRB01KT 9999 FEW015 BKN040 22/22 Q1010 BECMG 18015KT 5000 SHRA BKN006 SCT040CB
SACO 210400Z 27003KT 220V010 9999 FEW010 BKN025 FEW050CB 22/22 Q1010 BECMG 18015KT 5000 SHRA BKN006 SCT040CB CB OBS TO N
SACO 210300Z 01007KT 9999 SCT010 BKN018 FEW045CB 23/22 Q1010 NOSIG
SACO 210200Z 07007KT 7000 -TSRA SCT010 BKN014 SCT045CB 24/23 Q1011 RETSRA BECMG 18015KT 7000 RASH BKN010 SCT040CB
SACO 210125Z 13005KT 5000 TSRA SCT010 BKN014 SCT045CB 25/24 Q1012 BECMG 18015KT 7000 RASH BKN010 SCT040CB
SACO 210100Z 10006KT 070V150 9999 TS SCT009 BKN015 FEW040CB 25/24 Q1010 BECMG 18015KT 7000 RASH BKN010 SCT040CB
SACO 210000Z 10004KT 080V140 8000 -RA SCT018 BKN022 26/23 Q1009 NOSIG
SACO 202300Z 12005KT 8000 SCT020 BKN025 27/24 Q1008 NOSIG